sensor_id;sensor_type;location;lat;lon;timestamp;pressure;altitude;pressure_sealevel;temperature;humidity
12172;BME280;6149;52.418;13.668;2022-12-18T00:01:19;102853.16;;;-5.60;100.00
12172;BME280;6149;52.418;13.668;2022-12-18T00:03:48;102859.94;;;-5.62;100.00
12172;BME280;6149;52.418;13.668;2022-12-18T00:06:18;102861.56;;;-5.64;100.00
12172;BME280;6149;52.418;13.668;2022-12-18T00:08:49;102870.97;;;-5.65;100.00
12172;BME280;6149;52.418;13.668;2022-12-18T00:11:19;102873.63;;;-5.63;100.00
12172;BME280;6149;52.418;13.668;2022-12-18T00:13:48;102870.81;;;-5.68;100.00
12172;BME280;6149;52.418;13.668;2022-12-18T00:16:18;102879.28;;;-5.70;100.00
12172;BME280;6149;52.418;13.668;2022-12-18T00:18:50;102888.63;;;-5.73;100.00
12172;BME280;6149;52.418;13.668;2022-12-18T00:21:19;102882.19;;;-5.81;100.00
12172;BME280;6149;52.418;13.668;2022-12-18T00:23:48;102877.84;;;-5.82;100.00
12172;BME280;6149;52.418;13.668;2022-12-18T00:26:16;102872.03;;;-5.78;100.00
12172;BME280;6149;52.418;13.668;2022-12-18T00:28:45;102873.00;;;-5.76;100.00
12172;BME280;6149;52.418;13.668;2022-12-18T00:31:13;102874.69;;;-5.76;100.00
12172;BME280;6149;52.418;13.668;2022-12-18T00:33:41;102861.00;;;-5.75;100.00
12172;BME280;6149;52.418;13.668;2022-12-18T00:36:12;102865.34;;;-5.74;100.00
12172;BME280;6149;52.418;13.668;2022-12-18T00:38:40;102861.97;;;-5.73;100.00
12172;BME280;6149;52.418;13.668;2022-12-18T00:41:08;102857.56;;;-5.76;100.00
12172;BME280;6149;52.418;13.668;2022-12-18T00:43:36;102857.41;;;-5.79;100.00
12172;BME280;6149;52.418;13.668;2022-12-18T00:46:02;102866.50;;;-5.85;100.00
12172;BME280;6149;52.418;13.668;2022-12-18T00:48:29;102869.00;;;-5.87;100.00
12172;BME280;6149;52.418;13.668;2022-12-18T00:50:56;102874.69;;;-5.94;100.00
12172;BME280;6149;52.418;13.668;2022-12-18T00:53:24;102871.19;;;-5.96;100.00
12172;BME280;6149;52.418;13.668;2022-12-18T00:55:51;102865.88;;;-5.99;100.00
12172;BME280;6149;52.418;13.668;2022-12-18T00:58:18;102860.19;;;-5.92;100.00
12172;BME280;6149;52.418;13.668;2022-12-18T01:00:45;102860.81;;;-5.97;100.00
12172;BME280;6149;52.418;13.668;2022-12-18T01:03:13;102857.41;;;-5.96;100.00
12172;BME280;6149;52.418;13.668;2022-12-18T01:05:41;102848.94;;;-5.94;100.00
12172;BME280;6149;52.418;13.668;2022-12-18T01:08:08;102854.97;;;-5.93;100.00
12172;BME280;6149;52.418;13.668;2022-12-18T01:10:40;102851.66;;;-5.91;100.00
12172;BME280;6149;52.418;13.668;2022-12-18T01:13:07;102856.66;;;-5.94;100.00
12172;BME280;6149;52.418;13.668;2022-12-18T01:15:33;102865.78;;;-6.00;100.00
12172;BME280;6149;52.418;13.668;2022-12-18T01:18:00;102864.34;;;-6.12;100.00
12172;BME280;6149;52.418;13.668;2022-12-18T01:20:26;102872.06;;;-6.12;100.00
12172;BME280;6149;52.418;13.668;2022-12-18T01:22:53;102878.13;;;-6.11;100.00
12172;BME280;6149;52.418;13.668;2022-12-18T01:25:20;102875.63;;;-6.10;100.00
12172;BME280;6149;52.418;13.668;2022-12-18T01:27:48;102876.75;;;-6.04;100.00
12172;BME280;6149;52.418;13.668;2022-12-18T01:30:15;102877.38;;;-6.09;100.00
12172;BME280;6149;52.418;13.668;2022-12-18T01:32:41;102885.84;;;-6.11;100.00
12172;BME280;6149;52.418;13.668;2022-12-18T01:35:08;102885.91;;;-6.10;100.00
12172;BME280;6149;52.418;13.668;2022-12-18T01:37:35;102892.69;;;-6.12;100.00
12172;BME280;6149;52.418;13.668;2022-12-18T01:40:02;102890.34;;;-6.07;100.00
12172;BME280;6149;52.418;13.668;2022-12-18T01:42:29;102894.69;;;-6.06;100.00
12172;BME280;6149;52.418;13.668;2022-12-18T01:45:00;102900.78;;;-6.04;100.00
12172;BME280;6149;52.418;13.668;2022-12-18T01:47:34;102894.84;;;-6.03;100.00
12172;BME280;6149;52.418;13.668;2022-12-18T01:50:06;102898.88;;;-6.08;100.00
12172;BME280;6149;52.418;13.668;2022-12-18T01:52:35;102893.63;;;-6.10;100.00
12172;BME280;6149;52.418;13.668;2022-12-18T01:55:04;102890.91;;;-6.13;100.00
12172;BME280;6149;52.418;13.668;2022-12-18T01:57:36;102884.94;;;-6.12;100.00
12172;BME280;6149;52.418;13.668;2022-12-18T02:00:09;102879.00;;;-6.11;100.00
12172;BME280;6149;52.418;13.668;2022-12-18T02:02:39;102894.38;;;-6.12;100.00
12172;BME280;6149;52.418;13.668;2022-12-18T02:05:07;102897.91;;;-6.10;100.00
12172;BME280;6149;52.418;13.668;2022-12-18T02:07:42;102896.63;;;-6.18;100.00
12172;BME280;6149;52.418;13.668;2022-12-18T02:10:20;102895.72;;;-6.19;100.00
12172;BME280;6149;52.418;13.668;2022-12-18T02:12:56;102898.16;;;-6.22;100.00
12172;BME280;6149;52.418;13.668;2022-12-18T02:15:33;102898.94;;;-6.23;100.00
12172;BME280;6149;52.418;13.668;2022-12-18T02:18:05;102896.53;;;-6.20;100.00
12172;BME280;6149;52.418;13.668;2022-12-18T02:20:39;102907.63;;;-6.21;100.00
12172;BME280;6149;52.418;13.668;2022-12-18T02:23:21;102906.50;;;-6.10;100.00
12172;BME280;6149;52.418;13.668;2022-12-18T02:26:06;102903.28;;;-6.22;100.00
12172;BME280;6149;52.418;13.668;2022-12-18T02:28:38;102905.88;;;-6.22;100.00
12172;BME280;6149;52.418;13.668;2022-12-18T02:31:11;102911.91;;;-6.21;100.00
12172;BME280;6149;52.418;13.668;2022-12-18T02:33:43;102911.91;;;-6.21;100.00
12172;BME280;6149;52.418;13.668;2022-12-18T02:36:11;102915.03;;;-6.27;100.00
12172;BME280;6149;52.418;13.668;2022-12-18T02:38:41;102913.94;;;-6.32;100.00
12172;BME280;6149;52.418;13.668;2022-12-18T02:41:10;102920.09;;;-6.28;100.00
12172;BME280;6149;52.418;13.668;2022-12-18T02:43:38;102915.19;;;-6.24;100.00
12172;BME280;6149;52.418;13.668;2022-12-18T02:46:23;102915.47;;;-6.35;100.00
12172;BME280;6149;52.418;13.668;2022-12-18T02:48:57;102921.06;;;-6.43;100.00
12172;BME280;6149;52.418;13.668;2022-12-18T02:51:33;102924.63;;;-6.41;100.00
12172;BME280;6149;52.418;13.668;2022-12-18T02:54:09;102928.72;;;-6.44;100.00
12172;BME280;6149;52.418;13.668;2022-12-18T02:56:45;102938.13;;;-6.45;100.00
12172;BME280;6149;52.418;13.668;2022-12-18T02:59:19;102937.97;;;-6.48;100.00
12172;BME280;6149;52.418;13.668;2022-12-18T03:01:55;102939.41;;;-6.53;100.00
12172;BME280;6149;52.418;13.668;2022-12-18T03:04:26;102939.22;;;-6.56;100.00
12172;BME280;6149;52.418;13.668;2022-12-18T03:06:59;102946.16;;;-6.55;100.00
12172;BME280;6149;52.418;13.668;2022-12-18T03:09:32;102943.81;;;-6.50;100.00
12172;BME280;6149;52.418;13.668;2022-12-18T03:12:07;102944.72;;;-6.50;100.00
12172;BME280;6149;52.418;13.668;2022-12-18T03:14:55;102947.19;;;-6.51;100.00
12172;BME280;6149;52.418;13.668;2022-12-18T03:17:26;102944.97;;;-6.45;100.00
12172;BME280;6149;52.418;13.668;2022-12-18T03:20:00;102944.31;;;-6.41;100.00
12172;BME280;6149;52.418;13.668;2022-12-18T03:22:32;102935.81;;;-6.40;100.00
12172;BME280;6149;52.418;13.668;2022-12-18T03:25:02;102944.25;;;-6.43;100.00
12172;BME280;6149;52.418;13.668;2022-12-18T03:27:33;102951.53;;;-6.50;100.00
12172;BME280;6149;52.418;13.668;2022-12-18T03:30:05;102944.28;;;-6.57;100.00
12172;BME280;6149;52.418;13.668;2022-12-18T03:32:39;102943.94;;;-6.63;100.00
12172;BME280;6149;52.418;13.668;2022-12-18T03:35:11;102944.03;;;-6.62;100.00
12172;BME280;6149;52.418;13.668;2022-12-18T03:37:39;102948.13;;;-6.65;100.00
12172;BME280;6149;52.418;13.668;2022-12-18T03:40:07;102944.28;;;-6.57;100.00
12172;BME280;6149;52.418;13.668;2022-12-18T03:42:43;102941.06;;;-6.69;100.00
12172;BME280;6149;52.418;13.668;2022-12-18T03:45:19;102936.47;;;-6.75;100.00
12172;BME280;6149;52.418;13.668;2022-12-18T03:47:58;102931.34;;;-6.75;100.00
12172;BME280;6149;52.418;13.668;2022-12-18T03:50:33;102938.25;;;-6.74;100.00
12172;BME280;6149;52.418;13.668;2022-12-18T03:53:13;102931.16;;;-6.78;100.00
12172;BME280;6149;52.418;13.668;2022-12-18T03:55:46;102929.47;;;-6.78;100.00
12172;BME280;6149;52.418;13.668;2022-12-18T03:58:17;102930.38;;;-6.77;100.00
12172;BME280;6149;52.418;13.668;2022-12-18T04:00:48;102941.63;;;-6.75;100.00
12172;BME280;6149;52.418;13.668;2022-12-18T04:03:17;102940.09;;;-6.71;100.00
12172;BME280;6149;52.418;13.668;2022-12-18T04:05:46;102942.75;;;-6.70;100.00
12172;BME280;6149;52.418;13.668;2022-12-18T04:08:15;102952.00;;;-6.73;100.00
12172;BME280;6149;52.418;13.668;2022-12-18T04:10:42;102947.31;;;-6.81;100.00
12172;BME280;6149;52.418;13.668;2022-12-18T04:13:09;102948.19;;;-6.80;100.00
12172;BME280;6149;52.418;13.668;2022-12-18T04:15:38;102946.97;;;-6.87;100.00
12172;BME280;6149;52.418;13.668;2022-12-18T04:18:05;102945.63;;;-6.80;100.00
12172;BME280;6149;52.418;13.668;2022-12-18T04:20:31;102943.41;;;-6.89;100.00
12172;BME280;6149;52.418;13.668;2022-12-18T04:22:58;102952.19;;;-6.85;100.00
12172;BME280;6149;52.418;13.668;2022-12-18T04:25:24;102942.53;;;-6.89;100.00
12172;BME280;6149;52.418;13.668;2022-12-18T04:27:51;102935.16;;;-6.83;100.00
12172;BME280;6149;52.418;13.668;2022-12-18T04:30:18;102939.41;;;-6.84;100.00
12172;BME280;6149;52.418;13.668;2022-12-18T04:32:46;102951.94;;;-6.90;100.00
12172;BME280;6149;52.418;13.668;2022-12-18T04:35:12;102968.06;;;-6.92;100.00
12172;BME280;6149;52.418;13.668;2022-12-18T04:37:39;102950.88;;;-6.93;100.00
12172;BME280;6149;52.418;13.668;2022-12-18T04:40:06;102951.94;;;-6.90;100.00
12172;BME280;6149;52.418;13.668;2022-12-18T04:42:33;102963.38;;;-6.85;100.00
12172;BME280;6149;52.418;13.668;2022-12-18T04:45:00;102955.66;;;-6.85;100.00
12172;BME280;6149;52.418;13.668;2022-12-18T04:47:26;102964.34;;;-6.83;100.00
12172;BME280;6149;52.418;13.668;2022-12-18T04:49:54;102962.03;;;-6.78;100.00
12172;BME280;6149;52.418;13.668;2022-12-18T04:52:21;102954.94;;;-6.82;100.00
12172;BME280;6149;52.418;13.668;2022-12-18T04:54:47;102958.47;;;-6.80;100.00
12172;BME280;6149;52.418;13.668;2022-12-18T04:57:14;102969.47;;;-6.83;100.00
12172;BME280;6149;52.418;13.668;2022-12-18T04:59:41;102984.03;;;-6.83;100.00
12172;BME280;6149;52.418;13.668;2022-12-18T05:02:07;102979.75;;;-6.83;100.00
12172;BME280;6149;52.418;13.668;2022-12-18T05:04:34;102978.34;;;-6.78;100.00
12172;BME280;6149;52.418;13.668;2022-12-18T05:07:02;102981.34;;;-6.70;100.00
12172;BME280;6149;52.418;13.668;2022-12-18T05:09:28;102979.56;;;-6.71;100.00
12172;BME280;6149;52.418;13.668;2022-12-18T05:11:55;102980.69;;;-6.66;100.00
12172;BME280;6149;52.418;13.668;2022-12-18T05:14:21;102973.44;;;-6.73;100.00
12172;BME280;6149;52.418;13.668;2022-12-18T05:16:48;102974.44;;;-6.71;100.00
12172;BME280;6149;52.418;13.668;2022-12-18T05:19:15;102976.22;;;-6.54;100.00
12172;BME280;6149;52.418;13.668;2022-12-18T05:21:41;102972.06;;;-6.66;100.00
12172;BME280;6149;52.418;13.668;2022-12-18T05:24:09;102972.81;;;-6.69;100.00
12172;BME280;6149;52.418;13.668;2022-12-18T05:26:36;102976.19;;;-6.70;100.00
12172;BME280;6149;52.418;13.668;2022-12-18T05:29:02;102987.19;;;-6.72;100.00
12172;BME280;6149;52.418;13.668;2022-12-18T05:31:29;102996.84;;;-6.68;100.00
12172;BME280;6149;52.418;13.668;2022-12-18T05:33:56;102999.09;;;-6.75;100.00
12172;BME280;6149;52.418;13.668;2022-12-18T05:36:22;102993.06;;;-6.75;100.00
12172;BME280;6149;52.418;13.668;2022-12-18T05:38:49;102994.81;;;-6.74;100.00
12172;BME280;6149;52.418;13.668;2022-12-18T05:41:17;102993.44;;;-6.67;100.00
12172;BME280;6149;52.418;13.668;2022-12-18T05:43:43;103008.88;;;-6.67;100.00
12172;BME280;6149;52.418;13.668;2022-12-18T05:46:15;103006.31;;;-6.67;100.00
12172;BME280;6149;52.418;13.668;2022-12-18T05:48:44;103013.22;;;-6.66;100.00
12172;BME280;6149;52.418;13.668;2022-12-18T05:51:13;103010.13;;;-6.61;100.00
12172;BME280;6149;52.418;13.668;2022-12-18T05:53:41;103014.38;;;-6.61;100.00
12172;BME280;6149;52.418;13.668;2022-12-18T05:56:13;103021.28;;;-6.60;100.00
12172;BME280;6149;52.418;13.668;2022-12-18T05:58:42;103026.63;;;-6.57;100.00
12172;BME280;6149;52.418;13.668;2022-12-18T06:01:11;103027.41;;;-6.58;100.00
12172;BME280;6149;52.418;13.668;2022-12-18T06:03:39;103021.38;;;-6.59;100.00
12172;BME280;6149;52.418;13.668;2022-12-18T06:06:13;103021.81;;;-6.51;100.00
12172;BME280;6149;52.418;13.668;2022-12-18T06:08:40;103028.22;;;-6.59;100.00
12172;BME280;6149;52.418;13.668;2022-12-18T06:11:07;103026.44;;;-6.60;100.00
12172;BME280;6149;52.418;13.668;2022-12-18T06:13:33;103022.72;;;-6.65;100.00
12172;BME280;6149;52.418;13.668;2022-12-18T06:16:03;103030.22;;;-6.70;100.00
12172;BME280;6149;52.418;13.668;2022-12-18T06:18:30;103040.25;;;-6.75;100.00
12172;BME280;6149;52.418;13.668;2022-12-18T06:20:58;103041.22;;;-6.72;100.00
12172;BME280;6149;52.418;13.668;2022-12-18T06:23:26;103041.47;;;-6.83;100.00
12172;BME280;6149;52.418;13.668;2022-12-18T06:25:53;103057.63;;;-6.85;100.00
12172;BME280;6149;52.418;13.668;2022-12-18T06:28:20;103056.03;;;-6.83;100.00
12172;BME280;6149;52.418;13.668;2022-12-18T06:30:47;103046.63;;;-6.83;100.00
12172;BME280;6149;52.418;13.668;2022-12-18T06:33:16;103054.88;;;-6.73;100.00
12172;BME280;6149;52.418;13.668;2022-12-18T06:35:42;103061.78;;;-6.72;100.00
12172;BME280;6149;52.418;13.668;2022-12-18T06:38:09;103067.81;;;-6.72;100.00
12172;BME280;6149;52.418;13.668;2022-12-18T06:40:36;103064.53;;;-6.69;100.00
12172;BME280;6149;52.418;13.668;2022-12-18T06:43:04;103063.75;;;-6.68;100.00
12172;BME280;6149;52.418;13.668;2022-12-18T06:45:31;103062.19;;;-6.65;100.00
12172;BME280;6149;52.418;13.668;2022-12-18T06:47:57;103067.69;;;-6.59;100.00
12172;BME280;6149;52.418;13.668;2022-12-18T06:50:25;103063.44;;;-6.58;100.00
12172;BME280;6149;52.418;13.668;2022-12-18T06:52:52;103065.91;;;-6.60;100.00
12172;BME280;6149;52.418;13.668;2022-12-18T06:55:22;103071.84;;;-6.61;100.00
12172;BME280;6149;52.418;13.668;2022-12-18T06:57:49;103082.94;;;-6.62;100.00
12172;BME280;6149;52.418;13.668;2022-12-18T07:00:16;103084.63;;;-6.62;100.00
12172;BME280;6149;52.418;13.668;2022-12-18T07:02:43;103086.59;;;-6.58;100.00
12172;BME280;6149;52.418;13.668;2022-12-18T07:05:10;103089.88;;;-6.61;100.00
12172;BME280;6149;52.418;13.668;2022-12-18T07:07:38;103093.25;;;-6.62;100.00
12172;BME280;6149;52.418;13.668;2022-12-18T07:10:05;103097.66;;;-6.59;100.00
12172;BME280;6149;52.418;13.668;2022-12-18T07:12:32;103096.78;;;-6.60;100.00
12172;BME280;6149;52.418;13.668;2022-12-18T07:14:58;103092.25;;;-6.64;100.00
12172;BME280;6149;52.418;13.668;2022-12-18T07:17:25;103085.88;;;-6.56;100.00
12172;BME280;6149;52.418;13.668;2022-12-18T07:19:52;103083.38;;;-6.54;100.00
12172;BME280;6149;52.418;13.668;2022-12-18T07:22:19;103076.13;;;-6.61;100.00
12172;BME280;6149;52.418;13.668;2022-12-18T07:24:46;103075.94;;;-6.64;100.00
12172;BME280;6149;52.418;13.668;2022-12-18T07:27:14;103088.88;;;-6.63;100.00
12172;BME280;6149;52.418;13.668;2022-12-18T07:29:40;103085.59;;;-6.60;100.00
12172;BME280;6149;52.418;13.668;2022-12-18T07:32:07;103093.25;;;-6.62;100.00
12172;BME280;6149;52.418;13.668;2022-12-18T07:34:34;103097.66;;;-6.59;100.00
12172;BME280;6149;52.418;13.668;2022-12-18T07:37:00;103100.41;;;-6.56;100.00
12172;BME280;6149;52.418;13.668;2022-12-18T07:39:27;103112.75;;;-6.51;100.00
12172;BME280;6149;52.418;13.668;2022-12-18T07:41:55;103096.50;;;-6.50;100.00
12172;BME280;6149;52.418;13.668;2022-12-18T07:44:39;103096.44;;;-6.51;100.00
12172;BME280;6149;52.418;13.668;2022-12-18T07:47:06;103091.44;;;-6.48;100.00
12172;BME280;6149;52.418;13.668;2022-12-18T07:49:33;103084.97;;;-6.42;100.00
12172;BME280;6149;52.418;13.668;2022-12-18T07:51:59;103092.88;;;-6.38;100.00
12172;BME280;6149;52.418;13.668;2022-12-18T07:54:27;103093.03;;;-6.35;100.00
12172;BME280;6149;52.418;13.668;2022-12-18T07:56:55;103090.56;;;-6.34;100.00
12172;BME280;6149;52.418;13.668;2022-12-18T07:59:22;103093.44;;;-6.28;100.00
12172;BME280;6149;52.418;13.668;2022-12-18T08:01:49;103088.28;;;-6.28;100.00
12172;BME280;6149;52.418;13.668;2022-12-18T08:04:17;103091.91;;;-6.24;100.00
12172;BME280;6149;52.418;13.668;2022-12-18T08:06:44;103092.00;;;-6.23;100.00
12172;BME280;6149;52.418;13.668;2022-12-18T08:09:10;103094.84;;;-6.18;100.00
12172;BME280;6149;52.418;13.668;2022-12-18T08:11:38;103094.03;;;-6.17;100.00
12172;BME280;6149;52.418;13.668;2022-12-18T08:14:08;103091.09;;;-6.09;100.00
12172;BME280;6149;52.418;13.668;2022-12-18T08:16:37;103094.53;;;-6.08;100.00
12172;BME280;6149;52.418;13.668;2022-12-18T08:19:05;103091.91;;;-5.93;100.00
12172;BME280;6149;52.418;13.668;2022-12-18T08:21:32;103093.44;;;-5.97;100.00
12172;BME280;6149;52.418;13.668;2022-12-18T08:24:01;103092.66;;;-5.96;100.00
12172;BME280;6149;52.418;13.668;2022-12-18T08:26:30;103086.69;;;-5.95;100.00
12172;BME280;6149;52.418;13.668;2022-12-18T08:28:59;103098.81;;;-5.92;100.00
12172;BME280;6149;52.418;13.668;2022-12-18T08:31:29;103087.84;;;-5.88;100.00
12172;BME280;6149;52.418;13.668;2022-12-18T08:33:56;103098.66;;;-5.79;100.00
12172;BME280;6149;52.418;13.668;2022-12-18T08:36:26;103096.88;;;-5.80;100.00
12172;BME280;6149;52.418;13.668;2022-12-18T08:38:53;103104.06;;;-5.75;100.00
12172;BME280;6149;52.418;13.668;2022-12-18T08:41:20;103097.63;;;-5.66;100.00
12172;BME280;6149;52.418;13.668;2022-12-18T08:43:48;103092.31;;;-5.69;100.00
12172;BME280;6149;52.418;13.668;2022-12-18T08:46:35;103096.81;;;-5.65;100.00
12172;BME280;6149;52.418;13.668;2022-12-18T08:49:04;103103.75;;;-5.64;100.00
12172;BME280;6149;52.418;13.668;2022-12-18T08:51:31;103104.78;;;-5.61;100.00
12172;BME280;6149;52.418;13.668;2022-12-18T08:54:00;103116.19;;;-5.56;100.00
12172;BME280;6149;52.418;13.668;2022-12-18T08:56:26;103117.97;;;-5.55;100.00
12172;BME280;6149;52.418;13.668;2022-12-18T08:58:53;103107.09;;;-5.49;100.00
12172;BME280;6149;52.418;13.668;2022-12-18T09:01:21;103114.19;;;-5.45;100.00
12172;BME280;6149;52.418;13.668;2022-12-18T09:03:53;103110.09;;;-5.42;100.00
12172;BME280;6149;52.418;13.668;2022-12-18T09:06:20;103117.03;;;-5.41;100.00
12172;BME280;6149;52.418;13.668;2022-12-18T09:08:50;103131.84;;;-5.36;100.00
12172;BME280;6149;52.418;13.668;2022-12-18T09:11:21;103139.09;;;-5.29;100.00
12172;BME280;6149;52.418;13.668;2022-12-18T09:13:48;103142.56;;;-5.29;100.00
12172;BME280;6149;52.418;13.668;2022-12-18T09:16:18;103137.66;;;-5.24;100.00
12172;BME280;6149;52.418;13.668;2022-12-18T09:18:45;103137.94;;;-5.18;100.00
12172;BME280;6149;52.418;13.668;2022-12-18T09:21:17;103137.22;;;-5.16;100.00
12172;BME280;6149;52.418;13.668;2022-12-18T09:23:49;103135.03;;;-5.08;100.00
12172;BME280;6149;52.418;13.668;2022-12-18T09:26:16;103135.69;;;-5.12;100.00
12172;BME280;6149;52.418;13.668;2022-12-18T09:28:43;103135.94;;;-5.08;100.00
12172;BME280;6149;52.418;13.668;2022-12-18T09:31:15;103148.50;;;-4.97;100.00
12172;BME280;6149;52.418;13.668;2022-12-18T09:33:43;103163.00;;;-4.99;100.00
12172;BME280;6149;52.418;13.668;2022-12-18T09:36:12;103165.50;;;-5.01;100.00
12172;BME280;6149;52.418;13.668;2022-12-18T09:38:41;103163.81;;;-5.00;100.00
12172;BME280;6149;52.418;13.668;2022-12-18T09:41:30;103152.53;;;-5.02;100.00
12172;BME280;6149;52.418;13.668;2022-12-18T09:44:13;103145.75;;;-5.00;100.00
12172;BME280;6149;52.418;13.668;2022-12-18T09:46:46;103149.22;;;-5.00;100.00
12172;BME280;6149;52.418;13.668;2022-12-18T09:49:18;103148.56;;;-4.96;100.00
12172;BME280;6149;52.418;13.668;2022-12-18T09:51:49;103142.03;;;-4.89;100.00
12172;BME280;6149;52.418;13.668;2022-12-18T09:54:23;103135.09;;;-4.90;100.00
12172;BME280;6149;52.418;13.668;2022-12-18T09:56:53;103130.03;;;-4.89;100.00
12172;BME280;6149;52.418;13.668;2022-12-18T09:59:25;103131.72;;;-4.89;100.00
12172;BME280;6149;52.418;13.668;2022-12-18T10:01:56;103127.81;;;-4.81;100.00
12172;BME280;6149;52.418;13.668;2022-12-18T10:04:23;103123.41;;;-4.84;100.00
12172;BME280;6149;52.418;13.668;2022-12-18T10:06:55;103124.22;;;-4.85;100.00
12172;BME280;6149;52.418;13.668;2022-12-18T10:09:33;103110.50;;;-4.84;100.00
12172;BME280;6149;52.418;13.668;2022-12-18T10:12:08;103098.59;;;-4.80;100.00
12172;BME280;6149;52.418;13.668;2022-12-18T10:14:45;103097.72;;;-4.81;100.00
12172;BME280;6149;52.418;13.668;2022-12-18T10:17:22;103088.53;;;-4.76;100.00
12172;BME280;6149;52.418;13.668;2022-12-18T10:19:56;103081.66;;;-4.75;100.00
12172;BME280;6149;52.418;13.668;2022-12-18T10:22:37;103078.84;;;-4.80;100.00
12172;BME280;6149;52.418;13.668;2022-12-18T10:25:19;103079.47;;;-4.85;100.00
12172;BME280;6149;52.418;13.668;2022-12-18T10:27:53;103088.09;;;-4.85;100.00
12172;BME280;6149;52.418;13.668;2022-12-18T10:30:23;103090.06;;;-4.79;100.00
12172;BME280;6149;52.418;13.668;2022-12-18T10:32:51;103096.09;;;-4.79;100.00
12172;BME280;6149;52.418;13.668;2022-12-18T10:35:19;103090.13;;;-4.78;100.00
12172;BME280;6149;52.418;13.668;2022-12-18T10:38:01;103085.38;;;-4.70;100.00
12172;BME280;6149;52.418;13.668;2022-12-18T10:40:32;103081.25;;;-4.66;100.00
12172;BME280;6149;52.418;13.668;2022-12-18T10:43:15;103083.81;;;-4.66;100.00
12172;BME280;6149;52.418;13.668;2022-12-18T10:46:00;103082.78;;;-4.70;100.00
12172;BME280;6149;52.418;13.668;2022-12-18T10:48:30;103073.94;;;-4.75;100.00
12172;BME280;6149;52.418;13.668;2022-12-18T10:50:57;103071.19;;;-4.78;100.00
12172;BME280;6149;52.418;13.668;2022-12-18T10:53:26;103072.06;;;-4.78;100.00
12172;BME280;6149;52.418;13.668;2022-12-18T10:55:58;103067.53;;;-4.83;100.00
12172;BME280;6149;52.418;13.668;2022-12-18T10:58:27;103054.31;;;-4.89;100.00
12172;BME280;6149;52.418;13.668;2022-12-18T11:01:06;103057.56;;;-4.93;100.00
12172;BME280;6149;52.418;13.668;2022-12-18T11:03:37;103040.47;;;-4.91;100.00
12172;BME280;6149;52.418;13.668;2022-12-18T11:06:09;103049.16;;;-4.89;100.00
12172;BME280;6149;52.418;13.668;2022-12-18T11:08:39;103046.81;;;-4.85;100.00
12172;BME280;6149;52.418;13.668;2022-12-18T11:11:20;103044.00;;;-4.89;100.00
12172;BME280;6149;52.418;13.668;2022-12-18T11:14:00;103045.38;;;-4.78;100.00
12172;BME280;6149;52.418;13.668;2022-12-18T11:16:30;103043.47;;;-4.82;100.00
12172;BME280;6149;52.418;13.668;2022-12-18T11:19:19;103042.72;;;-4.80;100.00
12172;BME280;6149;52.418;13.668;2022-12-18T11:21:49;103046.34;;;-4.76;100.00
12172;BME280;6149;52.418;13.668;2022-12-18T11:24:29;103045.63;;;-4.74;100.00
12172;BME280;6149;52.418;13.668;2022-12-18T11:27:02;103049.84;;;-4.58;100.00
12172;BME280;6149;52.418;13.668;2022-12-18T11:29:35;103033.38;;;-4.60;100.00
12172;BME280;6149;52.418;13.668;2022-12-18T11:32:29;103034.19;;;-4.61;100.00
12172;BME280;6149;52.418;13.668;2022-12-18T11:35:19;103044.38;;;-4.64;100.00
12172;BME280;6149;52.418;13.668;2022-12-18T11:37:51;103049.53;;;-4.64;100.00
12172;BME280;6149;52.418;13.668;2022-12-18T11:40:33;103047.41;;;-4.55;100.00
12172;BME280;6149;52.418;13.668;2022-12-18T11:43:10;103051.16;;;-4.48;100.00
12172;BME280;6149;52.418;13.668;2022-12-18T11:45:47;103049.03;;;-4.57;100.00
12172;BME280;6149;52.418;13.668;2022-12-18T11:48:21;103045.94;;;-4.50;100.00
12172;BME280;6149;52.418;13.668;2022-12-18T11:50:52;103054.09;;;-4.58;100.00
12172;BME280;6149;52.418;13.668;2022-12-18T11:53:20;103039.66;;;-4.55;100.00
12172;BME280;6149;52.418;13.668;2022-12-18T11:55:58;103044.91;;;-4.53;100.00
12172;BME280;6149;52.418;13.668;2022-12-18T11:58:41;103046.81;;;-4.49;100.00
12172;BME280;6149;52.418;13.668;2022-12-18T12:01:23;103035.38;;;-4.54;100.00
12172;BME280;6149;52.418;13.668;2022-12-18T12:04:30;103042.16;;;-4.56;100.00
12172;BME280;6149;52.418;13.668;2022-12-18T12:07:12;103044.81;;;-4.55;100.00
12172;BME280;6149;52.418;13.668;2022-12-18T12:09:50;103052.56;;;-4.55;100.00
12172;BME280;6149;52.418;13.668;2022-12-18T12:12:34;103046.81;;;-4.49;100.00
12172;BME280;6149;52.418;13.668;2022-12-18T12:15:21;103053.81;;;-4.47;100.00
12172;BME280;6149;52.418;13.668;2022-12-18T12:17:56;103052.31;;;-4.42;100.00
12172;BME280;6149;52.418;13.668;2022-12-18T12:20:39;103061.59;;;-4.45;100.00
12172;BME280;6149;52.418;13.668;2022-12-18T12:23:19;103056.59;;;-4.42;100.00
12172;BME280;6149;52.418;13.668;2022-12-18T12:25:56;103059.16;;;-4.42;100.00
12172;BME280;6149;52.418;13.668;2022-12-18T12:28:47;103066.25;;;-4.38;100.00
12172;BME280;6149;52.418;13.668;2022-12-18T12:31:31;103068.16;;;-4.34;100.00
12172;BME280;6149;52.418;13.668;2022-12-18T12:34:11;103064.84;;;-4.31;100.00
12172;BME280;6149;52.418;13.668;2022-12-18T12:36:52;103065.81;;;-4.29;100.00
12172;BME280;6149;52.418;13.668;2022-12-18T12:39:30;103062.28;;;-4.31;100.00
12172;BME280;6149;52.418;13.668;2022-12-18T12:42:01;103079.59;;;-4.29;100.00
12172;BME280;6149;52.418;13.668;2022-12-18T12:44:50;103077.97;;;-4.27;100.00
12172;BME280;6149;52.418;13.668;2022-12-18T12:47:23;103084.91;;;-4.26;100.00
12172;BME280;6149;52.418;13.668;2022-12-18T12:49:54;103085.13;;;-4.21;100.00
12172;BME280;6149;52.418;13.668;2022-12-18T12:52:28;103096.34;;;-4.21;100.00
12172;BME280;6149;52.418;13.668;2022-12-18T12:54:57;103089.28;;;-4.25;100.00
12172;BME280;6149;52.418;13.668;2022-12-18T12:57:31;103088.31;;;-4.27;100.00
12172;BME280;6149;52.418;13.668;2022-12-18T13:00:05;103094.38;;;-4.26;100.00